sensor_id;sensor_type;location;lat;lon;timestamp;pressure;altitude;pressure_sealevel;temperature;humidity
69717;BME280;67420;46.144;19.666;2024-01-06T00:07:34;99219.91;;;22.05;49.99
69717;BME280;67420;46.144;19.666;2024-01-06T00:17:37;99228.13;;;22.11;50.13
69717;BME280;67420;46.144;19.666;2024-01-06T00:27:39;99225.63;;;22.10;49.70
69717;BME280;67420;46.144;19.666;2024-01-06T00:37:41;99240.38;;;22.14;50.11
69717;BME280;67420;46.144;19.666;2024-01-06T00:47:43;99252.81;;;22.15;49.83
69717;BME280;67420;46.144;19.666;2024-01-06T00:57:46;99259.69;;;22.17;49.55
69717;BME280;67420;46.144;19.666;2024-01-06T01:07:48;99249.97;;;22.16;49.62
69717;BME280;67420;46.144;19.666;2024-01-06T01:17:50;99249.63;;;22.19;49.62
69717;BME280;67420;46.144;19.666;2024-01-06T01:27:52;99228.84;;;22.21;49.88
69717;BME280;67420;46.144;19.666;2024-01-06T01:37:54;99233.22;;;22.22;49.50
69717;BME280;67420;46.144;19.666;2024-01-06T01:47:56;99241.78;;;22.26;49.58
69717;BME280;67420;46.144;19.666;2024-01-06T01:57:59;99234.41;;;22.28;49.39
69717;BME280;67420;46.144;19.666;2024-01-06T02:08:01;99223.66;;;22.28;49.23
69717;BME280;67420;46.144;19.666;2024-01-06T02:18:03;99226.88;;;22.31;49.25
69717;BME280;67420;46.144;19.666;2024-01-06T02:28:05;99227.34;;;22.35;49.44
69717;BME280;67420;46.144;19.666;2024-01-06T02:38:08;99220.34;;;22.34;49.23
69717;BME280;67420;46.144;19.666;2024-01-06T02:48:11;99185.75;;;22.39;49.29
69717;BME280;67420;46.144;19.666;2024-01-06T02:58:13;99144.47;;;22.40;49.21
69717;BME280;67420;46.144;19.666;2024-01-06T03:08:15;99139.78;;;22.42;49.13
69717;BME280;67420;46.144;19.666;2024-01-06T03:18:18;99159.41;;;22.43;48.79
69717;BME280;67420;46.144;19.666;2024-01-06T03:28:20;99117.47;;;22.42;49.11
69717;BME280;67420;46.144;19.666;2024-01-06T03:38:22;99103.72;;;22.45;49.00
69717;BME280;67420;46.144;19.666;2024-01-06T03:48:25;99094.31;;;22.49;49.17
69717;BME280;67420;46.144;19.666;2024-01-06T03:58:27;99091.78;;;22.47;49.20
69717;BME280;67420;46.144;19.666;2024-01-06T04:08:29;99088.59;;;22.52;49.20
69717;BME280;67420;46.144;19.666;2024-01-06T04:18:31;99073.50;;;22.51;48.81
69717;BME280;67420;46.144;19.666;2024-01-06T04:28:34;99067.97;;;22.52;48.91
69717;BME280;67420;46.144;19.666;2024-01-06T04:38:36;99045.66;;;22.52;49.04
69717;BME280;67420;46.144;19.666;2024-01-06T04:48:40;99038.44;;;22.52;48.86
69717;BME280;67420;46.144;19.666;2024-01-06T04:58:42;99036.41;;;22.54;49.08
69717;BME280;67420;46.144;19.666;2024-01-06T05:08:45;99028.53;;;22.53;48.71
69717;BME280;67420;46.144;19.666;2024-01-06T05:18:47;99030.88;;;22.56;48.85
69717;BME280;67420;46.144;19.666;2024-01-06T05:28:49;99029.19;;;22.55;48.90
69717;BME280;67420;46.144;19.666;2024-01-06T05:38:52;99019.63;;;22.52;48.81
69717;BME280;67420;46.144;19.666;2024-01-06T05:48:54;99026.16;;;22.58;48.85
69717;BME280;67420;46.144;19.666;2024-01-06T05:58:58;99035.06;;;22.58;48.99
69717;BME280;67420;46.144;19.666;2024-01-06T06:09:00;99030.53;;;22.59;48.89
69717;BME280;67420;46.144;19.666;2024-01-06T06:19:02;99016.78;;;22.54;48.86
69717;BME280;67420;46.144;19.666;2024-01-06T06:29:05;99011.06;;;22.57;48.64
69717;BME280;67420;46.144;19.666;2024-01-06T06:39:08;99011.91;;;22.57;48.83
69717;BME280;67420;46.144;19.666;2024-01-06T06:49:10;99006.53;;;22.57;49.02
69717;BME280;67420;46.144;19.666;2024-01-06T06:59:13;98995.28;;;22.54;48.61
69717;BME280;67420;46.144;19.666;2024-01-06T07:09:16;99004.84;;;22.56;48.84
69717;BME280;67420;46.144;19.666;2024-01-06T07:19:20;98986.25;;;22.47;48.66
69717;BME280;67420;46.144;19.666;2024-01-06T07:29:22;99012.06;;;22.56;48.54
69717;BME280;67420;46.144;19.666;2024-01-06T07:39:25;99007.72;;;22.55;48.83
69717;BME280;67420;46.144;19.666;2024-01-06T07:49:27;99019.13;;;22.57;48.84
69717;BME280;67420;46.144;19.666;2024-01-06T07:59:29;99019.97;;;22.57;48.22
69717;BME280;67420;46.144;19.666;2024-01-06T08:09:31;99016.59;;;22.55;48.30
69717;BME280;67420;46.144;19.666;2024-01-06T08:19:33;99021.81;;;22.57;48.42
69717;BME280;67420;46.144;19.666;2024-01-06T08:29:38;98998.16;;;22.52;48.32
69717;BME280;67420;46.144;19.666;2024-01-06T08:39:40;99018.44;;;22.55;48.44
69717;BME280;67420;46.144;19.666;2024-01-06T08:49:43;99012.41;;;22.53;48.71
69717;BME280;67420;46.144;19.666;2024-01-06T08:59:45;99009.56;;;22.54;48.38
69717;BME280;67420;46.144;19.666;2024-01-06T09:09:47;99011.41;;;22.54;49.18
69717;BME280;67420;46.144;19.666;2024-01-06T09:19:49;99005.38;;;22.52;49.10
69717;BME280;67420;46.144;19.666;2024-01-06T09:29:52;98998.66;;;22.56;49.07
69717;BME280;67420;46.144;19.666;2024-01-06T09:39:54;98989.56;;;22.57;49.42
69717;BME280;67420;46.144;19.666;2024-01-06T09:49:58;98985.22;;;22.56;49.31
69717;BME280;67420;46.144;19.666;2024-01-06T10:00:02;98959.38;;;22.55;49.64
69717;BME280;67420;46.144;19.666;2024-01-06T10:10:07;98964.19;;;22.67;51.45
69717;BME280;67420;46.144;19.666;2024-01-06T10:20:10;98955.13;;;22.68;51.84
69717;BME280;67420;46.144;19.666;2024-01-06T10:30:13;98919.94;;;22.55;51.40
69717;BME280;67420;46.144;19.666;2024-01-06T10:40:20;98926.09;;;22.64;51.43
69717;BME280;67420;46.144;19.666;2024-01-06T10:50:23;98916.53;;;22.61;51.67
69717;BME280;67420;46.144;19.666;2024-01-06T11:00:25;98900.78;;;22.58;51.42
69717;BME280;67420;46.144;19.666;2024-01-06T11:10:28;98883.00;;;22.57;51.37
69717;BME280;67420;46.144;19.666;2024-01-06T11:20:31;98879.13;;;22.60;51.29
69717;BME280;67420;46.144;19.666;2024-01-06T11:30:33;98856.16;;;22.57;51.24
69717;BME280;67420;46.144;19.666;2024-01-06T11:40:38;98848.09;;;22.57;51.53
69717;BME280;67420;46.144;19.666;2024-01-06T11:50:41;98854.31;;;22.58;51.19
69717;BME280;67420;46.144;19.666;2024-01-06T12:00:43;98845.75;;;22.54;51.11
69717;BME280;67420;46.144;19.666;2024-01-06T12:10:49;98834.00;;;22.55;51.05
69717;BME280;67420;46.144;19.666;2024-01-06T12:20:52;98844.56;;;22.57;51.12
69717;BME280;67420;46.144;19.666;2024-01-06T12:30:55;98819.25;;;22.51;51.10
69717;BME280;67420;46.144;19.666;2024-01-06T12:40:57;98812.03;;;22.52;51.01
69717;BME280;67420;46.144;19.666;2024-01-06T12:50:59;98815.56;;;22.52;50.73
69717;BME280;67420;46.144;19.666;2024-01-06T13:01:02;98817.41;;;22.52;50.81
69717;BME280;67420;46.144;19.666;2024-01-06T13:11:05;98812.22;;;22.50;50.96
69717;BME280;67420;46.144;19.666;2024-01-06T13:21:07;98802.81;;;22.46;51.00
69717;BME280;67420;46.144;19.666;2024-01-06T13:31:10;98799.97;;;22.48;50.90
69717;BME280;67420;46.144;19.666;2024-01-06T13:41:13;98788.56;;;22.46;50.91
69717;BME280;67420;46.144;19.666;2024-01-06T13:51:15;98792.75;;;22.48;51.30
69717;BME280;67420;46.144;19.666;2024-01-06T14:01:18;98786.53;;;22.48;51.29
69717;BME280;67420;46.144;19.666;2024-01-06T14:11:20;98786.88;;;22.45;51.10
69717;BME280;67420;46.144;19.666;2024-01-06T14:21:22;98788.75;;;22.44;51.21
69717;BME280;67420;46.144;19.666;2024-01-06T14:31:25;98790.59;;;22.44;51.32
69717;BME280;67420;46.144;19.666;2024-01-06T14:41:29;98796.31;;;22.41;51.16
69717;BME280;67420;46.144;19.666;2024-01-06T14:51:32;98807.69;;;22.43;51.12
69717;BME280;67420;46.144;19.666;2024-01-06T15:01:34;98801.66;;;22.41;51.35
69717;BME280;67420;46.144;19.666;2024-01-06T15:11:36;98794.97;;;22.37;51.55
69717;BME280;67420;46.144;19.666;2024-01-06T15:21:39;98798.16;;;22.40;51.35
69717;BME280;67420;46.144;19.666;2024-01-06T15:31:41;98789.59;;;22.37;51.40
69717;BME280;67420;46.144;19.666;2024-01-06T15:41:43;98798.31;;;22.39;51.34
69717;BME280;67420;46.144;19.666;2024-01-06T15:51:46;98801.00;;;22.39;51.29
69717;BME280;67420;46.144;19.666;2024-01-06T16:01:48;98788.59;;;22.38;51.15
69717;BME280;67420;46.144;19.666;2024-01-06T16:11:51;98789.59;;;22.37;51.48
69717;BME280;67420;46.144;19.666;2024-01-06T16:21:54;98787.47;;;22.32;51.44
69717;BME280;67420;46.144;19.666;2024-01-06T16:32:15;98787.09;;;22.35;51.50
69717;BME280;67420;46.144;19.666;2024-01-06T16:42:17;98774.88;;;22.32;51.43
69717;BME280;67420;46.144;19.666;2024-01-06T16:52:19;98765.81;;;22.33;51.37
69717;BME280;67420;46.144;19.666;2024-01-06T17:02:22;98780.25;;;22.32;51.39
69717;BME280;67420;46.144;19.666;2024-01-06T17:12:24;98766.84;;;22.32;51.31
69717;BME280;67420;46.144;19.666;2024-01-06T17:22:27;98766.34;;;22.29;51.09
69717;BME280;67420;46.144;19.666;2024-01-06T17:32:29;98774.56;;;22.27;51.51
69717;BME280;67420;46.144;19.666;2024-01-06T17:42:32;98764.03;;;22.18;51.17
69717;BME280;67420;46.144;19.666;2024-01-06T17:52:35;98795.03;;;22.28;51.29
69717;BME280;67420;46.144;19.666;2024-01-06T18:02:38;98798.06;;;22.25;51.53
69717;BME280;67420;46.144;19.666;2024-01-06T18:12:41;98795.38;;;22.25;51.53
69717;BME280;67420;46.144;19.666;2024-01-06T18:22:43;98783.97;;;22.23;51.21
69717;BME280;67420;46.144;19.666;2024-01-06T18:32:45;98787.31;;;22.25;51.62
69717;BME280;67420;46.144;19.666;2024-01-06T18:42:48;98790.19;;;22.24;51.58
69717;BME280;67420;46.144;19.666;2024-01-06T18:52:50;98798.41;;;22.22;51.42
69717;BME280;67420;46.144;19.666;2024-01-06T19:02:53;98776.63;;;22.17;51.24
69717;BME280;67420;46.144;19.666;2024-01-06T19:12:55;98778.97;;;22.20;51.52
69717;BME280;67420;46.144;19.666;2024-01-06T19:22:57;98770.72;;;22.22;51.31
69717;BME280;67420;46.144;19.666;2024-01-06T19:33:10;98749.59;;;22.19;51.42
69717;BME280;67420;46.144;19.666;2024-01-06T19:43:14;98741.56;;;22.19;51.38
69717;BME280;67420;46.144;19.666;2024-01-06T19:53:17;98716.91;;;22.15;51.23
69717;BME280;67420;46.144;19.666;2024-01-06T20:03:20;98706.84;;;22.17;51.24
69717;BME280;67420;46.144;19.666;2024-01-06T20:13:22;98695.44;;;22.15;51.57
69717;BME280;67420;46.144;19.666;2024-01-06T20:23:25;98675.16;;;22.13;51.60
69717;BME280;67420;46.144;19.666;2024-01-06T20:33:27;98670.81;;;22.12;51.63
69717;BME280;67420;46.144;19.666;2024-01-06T20:43:35;98668.63;;;22.15;51.12
69717;BME280;67420;46.144;19.666;2024-01-06T20:53:39;98661.09;;;22.11;51.23
69717;BME280;67420;46.144;19.666;2024-01-06T21:03:41;98658.22;;;22.12;51.30
69717;BME280;67420;46.144;19.666;2024-01-06T21:13:44;98658.22;;;22.12;51.11
69717;BME280;67420;46.144;19.666;2024-01-06T21:23:46;98652.88;;;22.12;51.25
69717;BME280;67420;46.144;19.666;2024-01-06T21:33:50;98635.09;;;22.11;51.14
69717;BME280;67420;46.144;19.666;2024-01-06T21:43:52;98635.28;;;22.10;51.37
69717;BME280;67420;46.144;19.666;2024-01-06T21:53:54;98632.13;;;22.06;51.08
69717;BME280;67420;46.144;19.666;2024-01-06T22:03:58;98616.03;;;22.06;51.17
69717;BME280;67420;46.144;19.666;2024-01-06T22:14:01;98614.38;;;22.05;51.06
69717;BME280;67420;46.144;19.666;2024-01-06T22:24:04;98601.97;;;22.04;51.07
69717;BME280;67420;46.144;19.666;2024-01-06T22:34:06;98582.69;;;22.00;51.14
69717;BME280;67420;46.144;19.666;2024-01-06T22:44:09;98584.84;;;22.05;51.15
69717;BME280;67420;46.144;19.666;2024-01-06T22:54:11;98572.63;;;22.03;51.11
69717;BME280;67420;46.144;19.666;2024-01-06T23:04:13;98555.34;;;22.05;50.97
69717;BME280;67420;46.144;19.666;2024-01-06T23:14:18;98550.31;;;22.02;51.45
69717;BME280;67420;46.144;19.666;2024-01-06T23:24:20;98542.59;;;22.07;51.27
69717;BME280;67420;46.144;19.666;2024-01-06T23:34:22;98539.72;;;22.09;51.11
69717;BME280;67420;46.144;19.666;2024-01-06T23:44:40;98533.53;;;22.08;51.07
69717;BME280;67420;46.144;19.666;2024-01-06T23:54:43;98516.78;;;22.06;50.98
